createdAt,value
2018-08-11T00:00:51.522Z,22.68
2018-08-11T00:15:51.726Z,22.25
2018-08-11T00:30:50.579Z,22.34
2018-08-11T00:45:50.290Z,22.69
2018-08-11T01:00:50.354Z,22.62
2018-08-11T01:15:51.783Z,22.50
2018-08-11T01:30:50.754Z,22.53
2018-08-11T01:45:50.838Z,22.41
2018-08-11T02:00:50.782Z,22.45
2018-08-11T02:15:51.220Z,22.74
2018-08-11T02:30:51.188Z,23.66
2018-08-11T02:45:51.200Z,24.34
2018-08-11T03:00:51.307Z,24.64
2018-08-11T03:15:50.797Z,23.08
2018-08-11T03:30:49.988Z,24.16
2018-08-11T03:45:50.456Z,24.43
2018-08-11T04:00:50.123Z,24.49
2018-08-11T04:15:51.140Z,24.82
2018-08-11T04:30:51.076Z,25.17
2018-08-11T04:45:51.073Z,25.59
2018-08-11T05:00:51.074Z,26.06
2018-08-11T05:15:50.494Z,26.58
2018-08-11T05:30:51.442Z,26.82
2018-08-11T05:45:51.470Z,27.42
2018-08-11T06:00:51.440Z,27.96
2018-08-11T06:15:50.410Z,28.23
2018-08-11T06:30:50.943Z,28.87
2018-08-11T06:45:50.810Z,29.40
2018-08-11T07:00:50.303Z,30.02
2018-08-11T07:15:51.334Z,30.33
2018-08-11T07:30:51.301Z,30.37
2018-08-11T07:45:51.356Z,30.55
2018-08-11T08:00:51.158Z,31.25
2018-08-11T08:15:50.596Z,31.08
2018-08-11T08:30:50.747Z,31.11
2018-08-11T08:45:50.572Z,31.33
2018-08-11T09:00:50.672Z,31.15
2018-08-11T09:15:51.092Z,31.23
2018-08-11T09:30:51.401Z,30.66
2018-08-11T09:45:51.096Z,30.61
2018-08-11T10:15:50.430Z,30.22
2018-08-11T10:30:54.290Z,30.21
2018-08-11T10:45:51.534Z,30.39
2018-08-11T11:00:53.345Z,30.24
2018-08-11T11:15:55.137Z,29.97
2018-08-11T11:30:50.298Z,29.87
2018-08-11T11:45:50.797Z,29.60
2018-08-11T12:00:51.771Z,29.40
2018-08-11T12:15:51.185Z,29.28
2018-08-11T12:30:51.186Z,29.13
2018-08-11T12:45:51.260Z,28.89
2018-08-11T13:00:51.140Z,28.75
2018-08-11T13:15:50.650Z,28.53
2018-08-11T13:30:50.646Z,28.27
2018-08-11T13:45:50.606Z,27.99
2018-08-11T14:00:50.527Z,27.80
2018-08-11T14:15:50.443Z,27.68
2018-08-11T14:30:50.967Z,27.57
2018-08-11T14:45:50.961Z,27.37
2018-08-11T15:00:50.918Z,27.24
2018-08-11T15:15:53.349Z,27.21
2018-08-11T15:30:51.420Z,27.14
2018-08-11T15:45:51.351Z,26.94
2018-08-11T16:00:52.341Z,26.77
2018-08-11T16:15:50.747Z,26.55
2018-08-11T16:30:50.792Z,26.42
2018-08-11T16:45:50.721Z,26.53
2018-08-11T17:00:51.757Z,26.15
2018-08-11T17:15:50.390Z,25.69
2018-08-11T17:30:50.943Z,26.07
2018-08-11T17:45:57.064Z,26.06
2018-08-11T18:00:51.165Z,25.37
2018-08-11T18:15:50.538Z,24.35
2018-08-11T18:30:51.791Z,23.60
2018-08-11T18:45:51.150Z,23.13
2018-08-11T19:00:54.238Z,22.85
2018-08-11T19:15:50.970Z,22.61
2018-08-11T19:30:50.925Z,22.21
2018-08-11T19:45:52.747Z,23.77
2018-08-11T20:00:50.938Z,24.76
2018-08-11T20:30:57.433Z,23.81
2018-08-11T20:45:51.160Z,24.82
2018-08-11T21:00:55.819Z,25.31
2018-08-11T21:15:52.587Z,25.51
2018-08-11T21:30:50.739Z,25.53
2018-08-11T21:45:50.298Z,25.56
2018-08-11T22:00:56.719Z,25.55
2018-08-11T22:15:50.948Z,25.48
2018-08-11T22:30:51.296Z,25.48
2018-08-11T22:45:51.177Z,25.44
2018-08-11T23:00:52.138Z,25.32
2018-08-11T23:15:50.586Z,25.33
2018-08-11T23:30:50.341Z,25.26
2018-08-11T23:45:50.473Z,25.13
